sensor_id;sensor_type;location;lat;lon;timestamp;P1;durP1;ratioP1;P2;durP2;ratioP2
48415;SDS011;34227;51.840;4.146;2022-08-25T00:01:44;11.43;;;8.77;;
48415;SDS011;34227;51.840;4.146;2022-08-25T00:04:11;15.30;;;9.85;;
48415;SDS011;34227;51.840;4.146;2022-08-25T00:06:38;12.90;;;8.88;;
48415;SDS011;34227;51.840;4.146;2022-08-25T00:09:05;10.82;;;9.07;;
48415;SDS011;34227;51.840;4.146;2022-08-25T00:11:32;15.57;;;9.70;;
48415;SDS011;34227;51.840;4.146;2022-08-25T00:14:00;13.05;;;10.05;;
48415;SDS011;34227;51.840;4.146;2022-08-25T00:16:27;11.57;;;9.70;;
48415;SDS011;34227;51.840;4.146;2022-08-25T00:18:56;12.25;;;9.93;;
48415;SDS011;34227;51.840;4.146;2022-08-25T00:21:22;12.15;;;10.30;;
48415;SDS011;34227;51.840;4.146;2022-08-25T00:23:49;14.65;;;10.45;;
48415;SDS011;34227;51.840;4.146;2022-08-25T00:26:15;16.23;;;12.77;;
48415;SDS011;34227;51.840;4.146;2022-08-25T00:28:41;17.80;;;11.00;;
48415;SDS011;34227;51.840;4.146;2022-08-25T00:31:16;15.13;;;11.80;;
48415;SDS011;34227;51.840;4.146;2022-08-25T00:33:45;15.35;;;11.15;;
48415;SDS011;34227;51.840;4.146;2022-08-25T00:36:12;12.35;;;10.63;;
48415;SDS011;34227;51.840;4.146;2022-08-25T00:38:39;15.15;;;11.23;;
48415;SDS011;34227;51.840;4.146;2022-08-25T00:41:09;14.93;;;11.48;;
48415;SDS011;34227;51.840;4.146;2022-08-25T00:43:48;18.65;;;12.88;;
48415;SDS011;34227;51.840;4.146;2022-08-25T00:46:18;14.75;;;12.50;;
48415;SDS011;34227;51.840;4.146;2022-08-25T00:48:46;16.33;;;11.82;;
48415;SDS011;34227;51.840;4.146;2022-08-25T00:51:15;15.93;;;12.23;;
48415;SDS011;34227;51.840;4.146;2022-08-25T00:53:45;18.10;;;11.98;;
48415;SDS011;34227;51.840;4.146;2022-08-25T00:56:12;16.48;;;12.68;;
48415;SDS011;34227;51.840;4.146;2022-08-25T00:58:39;16.30;;;11.50;;
48415;SDS011;34227;51.840;4.146;2022-08-25T01:01:06;18.27;;;11.73;;
48415;SDS011;34227;51.840;4.146;2022-08-25T01:03:32;14.40;;;12.43;;
48415;SDS011;34227;51.840;4.146;2022-08-25T01:05:59;14.68;;;11.73;;
48415;SDS011;34227;51.840;4.146;2022-08-25T01:08:27;13.60;;;12.20;;
48415;SDS011;34227;51.840;4.146;2022-08-25T01:10:54;15.77;;;12.57;;
48415;SDS011;34227;51.840;4.146;2022-08-25T01:16:16;14.77;;;11.93;;
48415;SDS011;34227;51.840;4.146;2022-08-25T01:18:52;16.75;;;13.38;;
48415;SDS011;34227;51.840;4.146;2022-08-25T01:24:07;20.30;;;13.27;;
48415;SDS011;34227;51.840;4.146;2022-08-25T01:26:38;18.50;;;12.88;;
48415;SDS011;34227;51.840;4.146;2022-08-25T01:29:08;17.73;;;12.73;;
48415;SDS011;34227;51.840;4.146;2022-08-25T01:32:01;14.77;;;13.27;;
48415;SDS011;34227;51.840;4.146;2022-08-25T01:34:29;18.63;;;13.80;;
48415;SDS011;34227;51.840;4.146;2022-08-25T01:37:16;14.18;;;12.45;;
48415;SDS011;34227;51.840;4.146;2022-08-25T01:45:09;13.30;;;11.15;;
48415;SDS011;34227;51.840;4.146;2022-08-25T01:47:36;13.60;;;10.93;;
48415;SDS011;34227;51.840;4.146;2022-08-25T01:50:03;13.93;;;11.82;;
48415;SDS011;34227;51.840;4.146;2022-08-25T01:52:36;14.00;;;10.90;;
48415;SDS011;34227;51.840;4.146;2022-08-25T01:55:03;14.82;;;12.48;;
48415;SDS011;34227;51.840;4.146;2022-08-25T01:57:31;14.30;;;12.13;;
48415;SDS011;34227;51.840;4.146;2022-08-25T01:59:57;13.10;;;11.70;;
48415;SDS011;34227;51.840;4.146;2022-08-25T02:02:23;13.77;;;11.68;;
48415;SDS011;34227;51.840;4.146;2022-08-25T02:04:49;15.05;;;11.25;;
48415;SDS011;34227;51.840;4.146;2022-08-25T02:07:15;13.48;;;11.52;;
48415;SDS011;34227;51.840;4.146;2022-08-25T02:09:42;14.93;;;11.18;;
48415;SDS011;34227;51.840;4.146;2022-08-25T02:12:08;18.27;;;12.65;;
48415;SDS011;34227;51.840;4.146;2022-08-25T02:14:37;14.23;;;10.50;;
48415;SDS011;34227;51.840;4.146;2022-08-25T02:17:03;17.98;;;11.82;;
48415;SDS011;34227;51.840;4.146;2022-08-25T02:19:29;15.27;;;11.38;;
48415;SDS011;34227;51.840;4.146;2022-08-25T02:21:56;14.90;;;12.20;;
48415;SDS011;34227;51.840;4.146;2022-08-25T02:24:22;13.75;;;11.45;;
48415;SDS011;34227;51.840;4.146;2022-08-25T02:26:48;13.88;;;11.60;;
48415;SDS011;34227;51.840;4.146;2022-08-25T02:29:14;15.98;;;13.68;;
48415;SDS011;34227;51.840;4.146;2022-08-25T02:31:41;16.25;;;12.30;;
48415;SDS011;34227;51.840;4.146;2022-08-25T02:34:08;14.65;;;12.40;;
48415;SDS011;34227;51.840;4.146;2022-08-25T02:36:34;15.57;;;11.95;;
48415;SDS011;34227;51.840;4.146;2022-08-25T02:39:00;15.93;;;11.02;;
48415;SDS011;34227;51.840;4.146;2022-08-25T02:41:27;13.48;;;11.90;;
48415;SDS011;34227;51.840;4.146;2022-08-25T02:43:54;18.17;;;10.93;;
48415;SDS011;34227;51.840;4.146;2022-08-25T02:46:20;13.85;;;11.30;;
48415;SDS011;34227;51.840;4.146;2022-08-25T02:48:47;13.85;;;10.50;;
48415;SDS011;34227;51.840;4.146;2022-08-25T02:51:13;16.92;;;10.80;;
48415;SDS011;34227;51.840;4.146;2022-08-25T02:53:40;13.40;;;11.10;;
48415;SDS011;34227;51.840;4.146;2022-08-25T02:56:08;13.48;;;10.65;;
48415;SDS011;34227;51.840;4.146;2022-08-25T02:58:34;14.05;;;10.80;;
48415;SDS011;34227;51.840;4.146;2022-08-25T03:01:00;12.98;;;10.73;;
48415;SDS011;34227;51.840;4.146;2022-08-25T03:03:26;12.50;;;10.23;;
48415;SDS011;34227;51.840;4.146;2022-08-25T03:05:52;13.43;;;10.40;;
48415;SDS011;34227;51.840;4.146;2022-08-25T03:08:22;15.35;;;11.35;;
48415;SDS011;34227;51.840;4.146;2022-08-25T03:10:49;12.10;;;9.30;;
48415;SDS011;34227;51.840;4.146;2022-08-25T03:13:15;9.43;;;8.43;;
48415;SDS011;34227;51.840;4.146;2022-08-25T03:15:41;10.77;;;8.52;;
48415;SDS011;34227;51.840;4.146;2022-08-25T03:18:07;13.90;;;10.48;;
48415;SDS011;34227;51.840;4.146;2022-08-25T03:20:37;10.90;;;7.95;;
48415;SDS011;34227;51.840;4.146;2022-08-25T03:23:04;9.63;;;8.02;;
48415;SDS011;34227;51.840;4.146;2022-08-25T03:25:32;11.52;;;8.07;;
48415;SDS011;34227;51.840;4.146;2022-08-25T03:28:17;10.65;;;9.50;;
48415;SDS011;34227;51.840;4.146;2022-08-25T03:30:44;10.00;;;8.95;;
48415;SDS011;34227;51.840;4.146;2022-08-25T03:33:10;10.88;;;8.57;;
48415;SDS011;34227;51.840;4.146;2022-08-25T03:35:36;10.07;;;8.30;;
48415;SDS011;34227;51.840;4.146;2022-08-25T03:38:02;9.73;;;8.65;;
48415;SDS011;34227;51.840;4.146;2022-08-25T03:40:29;10.88;;;9.40;;
48415;SDS011;34227;51.840;4.146;2022-08-25T03:42:55;11.98;;;10.68;;
48415;SDS011;34227;51.840;4.146;2022-08-25T03:45:21;12.75;;;10.10;;
48415;SDS011;34227;51.840;4.146;2022-08-25T03:47:48;11.27;;;9.32;;
48415;SDS011;34227;51.840;4.146;2022-08-25T03:50:15;11.45;;;9.85;;
48415;SDS011;34227;51.840;4.146;2022-08-25T03:52:41;15.13;;;11.70;;
48415;SDS011;34227;51.840;4.146;2022-08-25T03:55:08;13.10;;;9.60;;
48415;SDS011;34227;51.840;4.146;2022-08-25T03:57:35;13.63;;;9.20;;
48415;SDS011;34227;51.840;4.146;2022-08-25T04:00:04;13.50;;;9.30;;
48415;SDS011;34227;51.840;4.146;2022-08-25T04:02:31;11.65;;;8.68;;
48415;SDS011;34227;51.840;4.146;2022-08-25T04:04:57;15.32;;;10.13;;
48415;SDS011;34227;51.840;4.146;2022-08-25T04:07:25;12.77;;;9.40;;
48415;SDS011;34227;51.840;4.146;2022-08-25T04:09:55;14.65;;;9.05;;
48415;SDS011;34227;51.840;4.146;2022-08-25T04:12:22;10.93;;;8.88;;
48415;SDS011;34227;51.840;4.146;2022-08-25T04:14:48;12.40;;;10.15;;
48415;SDS011;34227;51.840;4.146;2022-08-25T04:17:16;11.80;;;9.02;;
48415;SDS011;34227;51.840;4.146;2022-08-25T04:19:42;11.77;;;9.73;;
48415;SDS011;34227;51.840;4.146;2022-08-25T04:22:09;11.07;;;9.13;;
48415;SDS011;34227;51.840;4.146;2022-08-25T04:24:35;14.40;;;9.93;;
48415;SDS011;34227;51.840;4.146;2022-08-25T04:27:01;11.75;;;10.50;;
48415;SDS011;34227;51.840;4.146;2022-08-25T04:29:27;11.88;;;9.68;;
48415;SDS011;34227;51.840;4.146;2022-08-25T04:31:53;11.57;;;10.07;;
48415;SDS011;34227;51.840;4.146;2022-08-25T04:34:20;14.23;;;10.45;;
48415;SDS011;34227;51.840;4.146;2022-08-25T04:39:34;12.25;;;10.07;;
48415;SDS011;34227;51.840;4.146;2022-08-25T04:42:00;16.52;;;10.02;;
48415;SDS011;34227;51.840;4.146;2022-08-25T04:44:27;15.85;;;10.93;;
48415;SDS011;34227;51.840;4.146;2022-08-25T04:46:53;12.35;;;10.73;;
48415;SDS011;34227;51.840;4.146;2022-08-25T04:49:20;11.60;;;10.18;;
48415;SDS011;34227;51.840;4.146;2022-08-25T04:51:46;19.48;;;11.07;;
48415;SDS011;34227;51.840;4.146;2022-08-25T04:54:12;13.93;;;10.73;;
48415;SDS011;34227;51.840;4.146;2022-08-25T04:56:45;16.40;;;11.43;;
48415;SDS011;34227;51.840;4.146;2022-08-25T04:59:13;14.43;;;10.80;;
48415;SDS011;34227;51.840;4.146;2022-08-25T05:01:40;14.77;;;11.40;;
48415;SDS011;34227;51.840;4.146;2022-08-25T05:04:08;12.85;;;10.73;;
48415;SDS011;34227;51.840;4.146;2022-08-25T05:06:34;15.30;;;12.00;;
48415;SDS011;34227;51.840;4.146;2022-08-25T05:09:02;13.85;;;11.45;;
48415;SDS011;34227;51.840;4.146;2022-08-25T05:11:28;11.60;;;9.52;;
48415;SDS011;34227;51.840;4.146;2022-08-25T05:13:55;13.23;;;10.55;;
48415;SDS011;34227;51.840;4.146;2022-08-25T05:16:22;14.52;;;10.05;;
48415;SDS011;34227;51.840;4.146;2022-08-25T05:18:50;12.18;;;9.38;;
48415;SDS011;34227;51.840;4.146;2022-08-25T05:21:18;15.07;;;10.32;;
48415;SDS011;34227;51.840;4.146;2022-08-25T05:23:45;11.57;;;10.30;;
48415;SDS011;34227;51.840;4.146;2022-08-25T05:26:14;13.82;;;11.35;;
48415;SDS011;34227;51.840;4.146;2022-08-25T05:28:41;11.77;;;9.88;;
48415;SDS011;34227;51.840;4.146;2022-08-25T05:31:08;14.50;;;10.57;;
48415;SDS011;34227;51.840;4.146;2022-08-25T05:33:35;13.60;;;10.82;;
48415;SDS011;34227;51.840;4.146;2022-08-25T05:36:02;13.40;;;10.90;;
48415;SDS011;34227;51.840;4.146;2022-08-25T05:38:28;15.52;;;10.32;;
48415;SDS011;34227;51.840;4.146;2022-08-25T05:40:58;13.52;;;10.52;;
48415;SDS011;34227;51.840;4.146;2022-08-25T05:46:09;15.68;;;10.35;;
48415;SDS011;34227;51.840;4.146;2022-08-25T05:48:36;14.38;;;10.45;;
48415;SDS011;34227;51.840;4.146;2022-08-25T05:51:03;16.35;;;11.70;;
48415;SDS011;34227;51.840;4.146;2022-08-25T05:56:33;15.30;;;11.27;;
48415;SDS011;34227;51.840;4.146;2022-08-25T05:58:59;16.17;;;10.70;;
48415;SDS011;34227;51.840;4.146;2022-08-25T06:01:26;14.13;;;10.07;;
48415;SDS011;34227;51.840;4.146;2022-08-25T06:04:12;17.50;;;10.60;;
48415;SDS011;34227;51.840;4.146;2022-08-25T06:06:39;12.65;;;10.48;;
48415;SDS011;34227;51.840;4.146;2022-08-25T06:09:08;19.25;;;11.35;;
48415;SDS011;34227;51.840;4.146;2022-08-25T06:11:35;17.02;;;11.57;;
48415;SDS011;34227;51.840;4.146;2022-08-25T06:16:47;13.30;;;10.60;;
48415;SDS011;34227;51.840;4.146;2022-08-25T06:22:01;13.10;;;10.90;;
48415;SDS011;34227;51.840;4.146;2022-08-25T06:27:13;14.23;;;11.07;;
48415;SDS011;34227;51.840;4.146;2022-08-25T06:29:42;13.93;;;10.95;;
48415;SDS011;34227;51.840;4.146;2022-08-25T06:32:08;16.45;;;11.48;;
48415;SDS011;34227;51.840;4.146;2022-08-25T06:34:34;14.48;;;12.10;;
48415;SDS011;34227;51.840;4.146;2022-08-25T06:37:04;16.60;;;12.38;;
48415;SDS011;34227;51.840;4.146;2022-08-25T06:39:30;14.55;;;11.20;;
48415;SDS011;34227;51.840;4.146;2022-08-25T06:41:59;16.00;;;12.32;;
48415;SDS011;34227;51.840;4.146;2022-08-25T06:44:27;13.68;;;11.85;;
48415;SDS011;34227;51.840;4.146;2022-08-25T06:46:56;17.52;;;11.48;;
48415;SDS011;34227;51.840;4.146;2022-08-25T06:49:25;15.93;;;11.75;;
48415;SDS011;34227;51.840;4.146;2022-08-25T06:51:55;15.18;;;11.05;;
48415;SDS011;34227;51.840;4.146;2022-08-25T06:54:21;13.10;;;11.13;;
48415;SDS011;34227;51.840;4.146;2022-08-25T06:56:47;15.52;;;11.95;;
48415;SDS011;34227;51.840;4.146;2022-08-25T06:59:13;15.70;;;11.38;;
48415;SDS011;34227;51.840;4.146;2022-08-25T07:01:41;14.02;;;11.35;;
48415;SDS011;34227;51.840;4.146;2022-08-25T07:04:07;14.90;;;11.43;;
48415;SDS011;34227;51.840;4.146;2022-08-25T07:06:35;15.85;;;10.88;;
48415;SDS011;34227;51.840;4.146;2022-08-25T07:09:04;15.63;;;10.57;;
48415;SDS011;34227;51.840;4.146;2022-08-25T07:11:34;18.52;;;10.95;;
48415;SDS011;34227;51.840;4.146;2022-08-25T07:14:00;17.20;;;11.15;;
48415;SDS011;34227;51.840;4.146;2022-08-25T07:16:27;15.43;;;11.02;;
48415;SDS011;34227;51.840;4.146;2022-08-25T07:18:56;14.55;;;10.32;;
48415;SDS011;34227;51.840;4.146;2022-08-25T07:21:23;14.35;;;11.38;;
48415;SDS011;34227;51.840;4.146;2022-08-25T07:23:52;16.60;;;9.70;;
48415;SDS011;34227;51.840;4.146;2022-08-25T07:26:24;14.02;;;10.40;;
48415;SDS011;34227;51.840;4.146;2022-08-25T07:28:53;14.23;;;9.95;;
48415;SDS011;34227;51.840;4.146;2022-08-25T07:31:22;15.15;;;10.95;;
48415;SDS011;34227;51.840;4.146;2022-08-25T07:33:51;15.10;;;9.82;;
48415;SDS011;34227;51.840;4.146;2022-08-25T07:36:35;22.27;;;10.98;;
48415;SDS011;34227;51.840;4.146;2022-08-25T07:39:02;10.13;;;8.52;;
48415;SDS011;34227;51.840;4.146;2022-08-25T07:41:36;10.43;;;8.77;;
48415;SDS011;34227;51.840;4.146;2022-08-25T07:44:04;12.52;;;8.70;;
48415;SDS011;34227;51.840;4.146;2022-08-25T07:46:38;9.13;;;7.82;;
48415;SDS011;34227;51.840;4.146;2022-08-25T07:49:04;11.13;;;7.70;;
48415;SDS011;34227;51.840;4.146;2022-08-25T07:51:33;10.45;;;7.63;;
48415;SDS011;34227;51.840;4.146;2022-08-25T07:53:59;12.82;;;7.07;;
48415;SDS011;34227;51.840;4.146;2022-08-25T07:56:26;10.27;;;7.25;;
48415;SDS011;34227;51.840;4.146;2022-08-25T07:58:52;11.23;;;6.85;;
48415;SDS011;34227;51.840;4.146;2022-08-25T08:01:22;9.20;;;6.45;;
48415;SDS011;34227;51.840;4.146;2022-08-25T08:03:51;16.27;;;7.30;;
48415;SDS011;34227;51.840;4.146;2022-08-25T08:06:20;9.88;;;6.47;;
48415;SDS011;34227;51.840;4.146;2022-08-25T08:08:47;15.80;;;6.55;;
48415;SDS011;34227;51.840;4.146;2022-08-25T08:11:18;10.18;;;6.32;;
48415;SDS011;34227;51.840;4.146;2022-08-25T08:13:44;10.60;;;6.35;;
48415;SDS011;34227;51.840;4.146;2022-08-25T08:16:11;13.63;;;6.57;;
48415;SDS011;34227;51.840;4.146;2022-08-25T08:18:37;10.65;;;5.53;;
48415;SDS011;34227;51.840;4.146;2022-08-25T08:21:04;10.02;;;5.90;;
48415;SDS011;34227;51.840;4.146;2022-08-25T08:23:31;10.85;;;6.45;;
48415;SDS011;34227;51.840;4.146;2022-08-25T08:25:57;13.45;;;6.15;;
48415;SDS011;34227;51.840;4.146;2022-08-25T08:28:23;13.85;;;6.80;;
48415;SDS011;34227;51.840;4.146;2022-08-25T08:30:51;13.60;;;6.32;;
48415;SDS011;34227;51.840;4.146;2022-08-25T08:33:18;13.15;;;5.68;;
48415;SDS011;34227;51.840;4.146;2022-08-25T08:35:44;12.95;;;6.63;;
48415;SDS011;34227;51.840;4.146;2022-08-25T08:38:10;12.90;;;5.82;;
48415;SDS011;34227;51.840;4.146;2022-08-25T08:40:39;8.98;;;5.43;;
48415;SDS011;34227;51.840;4.146;2022-08-25T08:43:09;8.10;;;5.28;;
48415;SDS011;34227;51.840;4.146;2022-08-25T08:45:39;10.23;;;5.22;;
48415;SDS011;34227;51.840;4.146;2022-08-25T08:51:43;7.60;;;3.95;;
48415;SDS011;34227;51.840;4.146;2022-08-25T08:56:05;9.48;;;4.50;;
48415;SDS011;34227;51.840;4.146;2022-08-25T09:01:12;8.23;;;4.85;;
48415;SDS011;34227;51.840;4.146;2022-08-25T09:03:48;10.45;;;5.47;;
48415;SDS011;34227;51.840;4.146;2022-08-25T09:06:35;15.68;;;5.65;;
48415;SDS011;34227;51.840;4.146;2022-08-25T09:09:03;12.93;;;5.53;;
48415;SDS011;34227;51.840;4.146;2022-08-25T09:14:05;7.25;;;5.30;;
48415;SDS011;34227;51.840;4.146;2022-08-25T09:19:37;8.75;;;5.30;;
48415;SDS011;34227;51.840;4.146;2022-08-25T09:24:42;7.53;;;4.88;;
48415;SDS011;34227;51.840;4.146;2022-08-25T09:27:26;8.25;;;4.22;;
48415;SDS011;34227;51.840;4.146;2022-08-25T09:32:29;11.65;;;4.32;;
48415;SDS011;34227;51.840;4.146;2022-08-25T09:34:57;11.00;;;5.22;;
48415;SDS011;34227;51.840;4.146;2022-08-25T09:40:10;9.48;;;5.05;;
48415;SDS011;34227;51.840;4.146;2022-08-25T09:42:46;9.70;;;5.00;;
48415;SDS011;34227;51.840;4.146;2022-08-25T09:45:13;9.48;;;4.82;;
48415;SDS011;34227;51.840;4.146;2022-08-25T09:47:43;6.97;;;4.43;;
48415;SDS011;34227;51.840;4.146;2022-08-25T09:52:54;5.72;;;4.20;;
48415;SDS011;34227;51.840;4.146;2022-08-25T09:58:27;8.13;;;3.90;;
48415;SDS011;34227;51.840;4.146;2022-08-25T10:01:05;10.70;;;4.57;;
48415;SDS011;34227;51.840;4.146;2022-08-25T10:03:37;5.60;;;4.45;;
48415;SDS011;34227;51.840;4.146;2022-08-25T10:06:04;8.13;;;4.50;;
48415;SDS011;34227;51.840;4.146;2022-08-25T10:11:03;8.27;;;4.80;;
48415;SDS011;34227;51.840;4.146;2022-08-25T10:13:40;9.90;;;5.25;;
48415;SDS011;34227;51.840;4.146;2022-08-25T10:16:26;10.32;;;5.25;;
48415;SDS011;34227;51.840;4.146;2022-08-25T10:21:28;8.23;;;3.85;;
48415;SDS011;34227;51.840;4.146;2022-08-25T10:23:55;9.90;;;3.85;;
48415;SDS011;34227;51.840;4.146;2022-08-25T10:26:31;6.78;;;4.28;;
48415;SDS011;34227;51.840;4.146;2022-08-25T10:29:10;7.85;;;4.03;;
48415;SDS011;34227;51.840;4.146;2022-08-25T10:37:14;12.73;;;4.38;;
48415;SDS011;34227;51.840;4.146;2022-08-25T10:42:41;9.80;;;3.45;;
48415;SDS011;34227;51.840;4.146;2022-08-25T10:45:16;5.90;;;3.75;;
48415;SDS011;34227;51.840;4.146;2022-08-25T10:50:44;7.22;;;3.33;;
48415;SDS011;34227;51.840;4.146;2022-08-25T11:07:10;8.77;;;3.53;;
48415;SDS011;34227;51.840;4.146;2022-08-25T11:15:54;9.23;;;4.03;;
48415;SDS011;34227;51.840;4.146;2022-08-25T11:18:24;10.35;;;3.65;;
48415;SDS011;34227;51.840;4.146;2022-08-25T11:26:27;4.75;;;3.25;;
48415;SDS011;34227;51.840;4.146;2022-08-25T11:50:30;5.53;;;2.78;;
48415;SDS011;34227;51.840;4.146;2022-08-25T12:00:53;6.30;;;4.22;;
48415;SDS011;34227;51.840;4.146;2022-08-25T12:37:33;10.90;;;9.00;;
48415;SDS011;34227;51.840;4.146;2022-08-25T12:42:34;10.55;;;8.25;;
48415;SDS011;34227;51.840;4.146;2022-08-25T12:47:33;10.77;;;8.70;;
48415;SDS011;34227;51.840;4.146;2022-08-25T12:52:44;10.35;;;7.95;;
48415;SDS011;34227;51.840;4.146;2022-08-25T12:55:13;11.65;;;9.10;;
48415;SDS011;34227;51.840;4.146;2022-08-25T12:57:50;13.13;;;10.25;;
48415;SDS011;34227;51.840;4.146;2022-08-25T13:02:52;8.77;;;6.80;;
48415;SDS011;34227;51.840;4.146;2022-08-25T13:05:45;15.70;;;8.35;;
48415;SDS011;34227;51.840;4.146;2022-08-25T13:23:03;13.82;;;11.18;;
48415;SDS011;34227;51.840;4.146;2022-08-25T13:25:29;18.52;;;14.38;;
48415;SDS011;34227;51.840;4.146;2022-08-25T13:54:40;14.35;;;11.40;;
48415;SDS011;34227;51.840;4.146;2022-08-25T14:17:13;16.88;;;14.90;;
48415;SDS011;34227;51.840;4.146;2022-08-25T14:19:45;20.95;;;15.48;;
48415;SDS011;34227;51.840;4.146;2022-08-25T14:22:12;22.17;;;16.08;;
48415;SDS011;34227;51.840;4.146;2022-08-25T14:24:47;19.17;;;17.05;;
48415;SDS011;34227;51.840;4.146;2022-08-25T14:30:39;22.98;;;19.10;;
48415;SDS011;34227;51.840;4.146;2022-08-25T14:33:16;21.50;;;18.10;;
48415;SDS011;34227;51.840;4.146;2022-08-25T14:35:47;25.13;;;17.05;;
48415;SDS011;34227;51.840;4.146;2022-08-25T14:38:19;19.60;;;15.93;;
48415;SDS011;34227;51.840;4.146;2022-08-25T14:40:55;20.40;;;18.20;;
48415;SDS011;34227;51.840;4.146;2022-08-25T14:43:22;23.90;;;21.40;;
48415;SDS011;34227;51.840;4.146;2022-08-25T14:45:51;26.90;;;20.88;;
48415;SDS011;34227;51.840;4.146;2022-08-25T14:48:29;22.20;;;18.52;;
48415;SDS011;34227;51.840;4.146;2022-08-25T14:50:57;21.25;;;18.52;;
48415;SDS011;34227;51.840;4.146;2022-08-25T14:53:23;22.20;;;17.10;;
48415;SDS011;34227;51.840;4.146;2022-08-25T14:55:50;17.83;;;15.75;;
48415;SDS011;34227;51.840;4.146;2022-08-25T15:01:01;21.77;;;15.13;;
48415;SDS011;34227;51.840;4.146;2022-08-25T15:03:34;20.40;;;14.90;;
48415;SDS011;34227;51.840;4.146;2022-08-25T15:08:53;21.33;;;15.18;;
48415;SDS011;34227;51.840;4.146;2022-08-25T15:14:39;20.00;;;13.60;;
48415;SDS011;34227;51.840;4.146;2022-08-25T15:17:16;19.75;;;15.68;;
48415;SDS011;34227;51.840;4.146;2022-08-25T15:19:44;17.92;;;15.00;;
48415;SDS011;34227;51.840;4.146;2022-08-25T15:22:16;22.63;;;15.65;;
48415;SDS011;34227;51.840;4.146;2022-08-25T15:24:53;22.90;;;13.48;;
48415;SDS011;34227;51.840;4.146;2022-08-25T15:30:06;21.17;;;14.90;;
48415;SDS011;34227;51.840;4.146;2022-08-25T15:32:46;20.05;;;13.73;;
48415;SDS011;34227;51.840;4.146;2022-08-25T15:37:51;23.85;;;13.43;;
48415;SDS011;34227;51.840;4.146;2022-08-25T15:40:17;19.02;;;14.45;;
48415;SDS011;34227;51.840;4.146;2022-08-25T15:43:02;22.35;;;14.27;;
48415;SDS011;34227;51.840;4.146;2022-08-25T15:45:35;18.38;;;12.32;;
48415;SDS011;34227;51.840;4.146;2022-08-25T15:48:10;16.35;;;13.07;;
48415;SDS011;34227;51.840;4.146;2022-08-25T15:51:05;17.58;;;11.52;;
48415;SDS011;34227;51.840;4.146;2022-08-25T16:13:30;12.07;;;8.07;;
48415;SDS011;34227;51.840;4.146;2022-08-25T16:15:57;11.45;;;7.82;;
48415;SDS011;34227;51.840;4.146;2022-08-25T16:18:23;11.85;;;7.32;;
48415;SDS011;34227;51.840;4.146;2022-08-25T16:20:50;13.82;;;6.50;;
48415;SDS011;34227;51.840;4.146;2022-08-25T16:23:17;11.25;;;7.10;;
48415;SDS011;34227;51.840;4.146;2022-08-25T16:25:44;15.50;;;6.53;;
48415;SDS011;34227;51.840;4.146;2022-08-25T16:28:11;11.27;;;5.75;;
48415;SDS011;34227;51.840;4.146;2022-08-25T16:30:37;16.92;;;7.03;;
48415;SDS011;34227;51.840;4.146;2022-08-25T16:33:09;22.60;;;7.28;;
48415;SDS011;34227;51.840;4.146;2022-08-25T16:35:35;12.25;;;5.97;;
48415;SDS011;34227;51.840;4.146;2022-08-25T16:40:45;15.18;;;5.63;;
48415;SDS011;34227;51.840;4.146;2022-08-25T16:43:11;10.18;;;5.60;;
48415;SDS011;34227;51.840;4.146;2022-08-25T16:45:38;10.75;;;5.00;;
48415;SDS011;34227;51.840;4.146;2022-08-25T16:50:49;13.60;;;6.17;;
48415;SDS011;34227;51.840;4.146;2022-08-25T16:53:15;10.27;;;5.13;;
48415;SDS011;34227;51.840;4.146;2022-08-25T16:56:04;12.93;;;5.82;;
48415;SDS011;34227;51.840;4.146;2022-08-25T17:01:40;14.48;;;5.70;;
48415;SDS011;34227;51.840;4.146;2022-08-25T17:04:07;10.60;;;5.75;;
48415;SDS011;34227;51.840;4.146;2022-08-25T17:06:42;12.30;;;5.75;;
48415;SDS011;34227;51.840;4.146;2022-08-25T17:09:15;11.23;;;4.70;;
48415;SDS011;34227;51.840;4.146;2022-08-25T17:11:42;11.10;;;5.18;;
48415;SDS011;34227;51.840;4.146;2022-08-25T17:14:13;15.52;;;4.80;;
48415;SDS011;34227;51.840;4.146;2022-08-25T17:16:39;9.25;;;4.90;;
48415;SDS011;34227;51.840;4.146;2022-08-25T17:19:06;12.05;;;4.72;;
48415;SDS011;34227;51.840;4.146;2022-08-25T17:21:34;11.95;;;5.32;;
48415;SDS011;34227;51.840;4.146;2022-08-25T17:24:02;9.10;;;4.50;;
48415;SDS011;34227;51.840;4.146;2022-08-25T17:26:28;19.13;;;4.60;;
48415;SDS011;34227;51.840;4.146;2022-08-25T17:28:58;13.30;;;6.07;;
48415;SDS011;34227;51.840;4.146;2022-08-25T17:31:25;9.50;;;4.20;;
48415;SDS011;34227;51.840;4.146;2022-08-25T17:33:52;13.13;;;4.32;;
48415;SDS011;34227;51.840;4.146;2022-08-25T17:36:18;15.68;;;4.43;;
48415;SDS011;34227;51.840;4.146;2022-08-25T17:38:44;9.63;;;4.00;;
48415;SDS011;34227;51.840;4.146;2022-08-25T17:41:10;9.32;;;3.70;;
48415;SDS011;34227;51.840;4.146;2022-08-25T17:43:39;14.90;;;3.15;;
48415;SDS011;34227;51.840;4.146;2022-08-25T17:46:06;9.20;;;2.80;;
48415;SDS011;34227;51.840;4.146;2022-08-25T17:48:33;12.30;;;2.90;;
48415;SDS011;34227;51.840;4.146;2022-08-25T17:51:03;10.32;;;2.80;;
48415;SDS011;34227;51.840;4.146;2022-08-25T17:53:30;12.85;;;3.33;;
48415;SDS011;34227;51.840;4.146;2022-08-25T17:56:00;9.52;;;2.83;;
48415;SDS011;34227;51.840;4.146;2022-08-25T18:01:32;9.98;;;2.55;;
48415;SDS011;34227;51.840;4.146;2022-08-25T18:03:58;9.48;;;2.47;;
48415;SDS011;34227;51.840;4.146;2022-08-25T18:06:25;10.02;;;3.35;;
48415;SDS011;34227;51.840;4.146;2022-08-25T18:08:53;11.05;;;3.42;;
48415;SDS011;34227;51.840;4.146;2022-08-25T18:16:54;8.20;;;2.80;;
48415;SDS011;34227;51.840;4.146;2022-08-25T18:19:23;8.50;;;2.92;;
48415;SDS011;34227;51.840;4.146;2022-08-25T18:24:54;10.65;;;2.42;;
48415;SDS011;34227;51.840;4.146;2022-08-25T18:27:20;8.38;;;2.70;;
48415;SDS011;34227;51.840;4.146;2022-08-25T18:29:46;9.57;;;2.70;;
48415;SDS011;34227;51.840;4.146;2022-08-25T18:32:12;10.48;;;4.30;;
48415;SDS011;34227;51.840;4.146;2022-08-25T18:34:38;16.88;;;4.53;;
48415;SDS011;34227;51.840;4.146;2022-08-25T18:37:05;11.02;;;3.25;;
48415;SDS011;34227;51.840;4.146;2022-08-25T18:39:49;13.90;;;3.80;;
48415;SDS011;34227;51.840;4.146;2022-08-25T18:42:36;10.82;;;3.13;;
48415;SDS011;34227;51.840;4.146;2022-08-25T18:45:03;17.15;;;3.85;;
48415;SDS011;34227;51.840;4.146;2022-08-25T18:47:30;9.82;;;3.22;;
48415;SDS011;34227;51.840;4.146;2022-08-25T18:52:44;12.85;;;4.38;;
48415;SDS011;34227;51.840;4.146;2022-08-25T18:55:16;11.05;;;4.88;;
48415;SDS011;34227;51.840;4.146;2022-08-25T19:00:36;16.27;;;4.72;;
48415;SDS011;34227;51.840;4.146;2022-08-25T19:03:05;11.93;;;5.38;;
48415;SDS011;34227;51.840;4.146;2022-08-25T19:08:18;11.50;;;4.28;;
48415;SDS011;34227;51.840;4.146;2022-08-25T19:10:48;10.30;;;4.18;;
48415;SDS011;34227;51.840;4.146;2022-08-25T19:13:24;9.27;;;3.47;;
48415;SDS011;34227;51.840;4.146;2022-08-25T19:15:51;9.52;;;2.85;;
48415;SDS011;34227;51.840;4.146;2022-08-25T19:18:21;13.45;;;3.03;;
48415;SDS011;34227;51.840;4.146;2022-08-25T19:20:52;10.77;;;3.20;;
48415;SDS011;34227;51.840;4.146;2022-08-25T19:23:19;8.73;;;3.30;;
48415;SDS011;34227;51.840;4.146;2022-08-25T19:25:45;5.32;;;2.53;;
48415;SDS011;34227;51.840;4.146;2022-08-25T19:28:13;6.63;;;3.00;;
48415;SDS011;34227;51.840;4.146;2022-08-25T19:30:46;8.07;;;2.22;;
48415;SDS011;34227;51.840;4.146;2022-08-25T19:33:16;8.43;;;2.72;;
48415;SDS011;34227;51.840;4.146;2022-08-25T19:35:47;8.77;;;2.17;;
48415;SDS011;34227;51.840;4.146;2022-08-25T19:38:16;9.35;;;2.55;;
48415;SDS011;34227;51.840;4.146;2022-08-25T19:40:44;5.13;;;1.90;;